createdAt,value
2022-11-09T00:02:30.726Z,12.05
2022-11-09T00:05:34.755Z,11.93
2022-11-09T00:08:39.093Z,11.94
2022-11-09T00:11:44.123Z,11.82
2022-11-09T00:14:47.674Z,11.86
2022-11-09T00:17:51.586Z,11.71
2022-11-09T00:20:55.298Z,11.63
2022-11-09T00:23:59.146Z,11.61
2022-11-09T00:27:04.167Z,11.56
2022-11-09T00:30:10.566Z,11.60
2022-11-09T00:33:14.134Z,11.56
2022-11-09T00:36:18.730Z,11.55
2022-11-09T00:39:22.367Z,11.39
2022-11-09T00:42:27.345Z,11.31
2022-11-09T00:45:30.876Z,11.34
2022-11-09T00:48:34.667Z,11.24
2022-11-09T00:51:38.288Z,11.22
2022-11-09T00:54:41.812Z,11.37
2022-11-09T00:57:49.745Z,11.21
2022-11-09T01:00:53.775Z,11.16
2022-11-09T01:03:57.484Z,11.44
2022-11-09T01:07:01.145Z,11.41
2022-11-09T01:10:05.465Z,11.33
2022-11-09T01:13:10.850Z,11.32
2022-11-09T01:16:18.749Z,11.31
2022-11-09T01:19:22.313Z,11.41
2022-11-09T01:22:25.814Z,11.38
2022-11-09T01:25:29.385Z,11.52
2022-11-09T01:28:34.915Z,11.49
2022-11-09T01:31:38.444Z,11.49
2022-11-09T01:34:42.053Z,11.53
2022-11-09T01:37:45.645Z,11.56
2022-11-09T01:40:49.223Z,11.70
2022-11-09T01:44:14.298Z,11.59
2022-11-09T01:47:27.403Z,11.68
2022-11-09T01:50:43.212Z,11.53
2022-11-09T01:53:54.368Z,11.53
2022-11-09T01:57:05.408Z,11.49
2022-11-09T02:00:16.896Z,11.49
2022-11-09T02:03:27.770Z,11.52
2022-11-09T02:06:33.711Z,11.53
2022-11-09T02:09:45.143Z,11.53
2022-11-09T02:12:49.952Z,11.50
2022-11-09T02:15:55.133Z,11.56
2022-11-09T02:19:01.387Z,11.59
2022-11-09T02:22:06.371Z,11.71
2022-11-09T02:25:11.995Z,11.71
2022-11-09T02:28:17.647Z,11.70
2022-11-09T02:31:23.738Z,11.76
2022-11-09T02:34:27.502Z,11.61
2022-11-09T02:37:37.105Z,11.67
2022-11-09T02:40:45.562Z,11.71
2022-11-09T02:43:51.414Z,11.54
2022-11-09T02:46:55.059Z,11.48
2022-11-09T02:49:58.650Z,11.38
2022-11-09T02:53:03.799Z,11.54
2022-11-09T02:56:08.101Z,11.52
2022-11-09T02:59:11.976Z,11.63
2022-11-09T03:02:15.553Z,11.55
2022-11-09T03:05:19.526Z,11.55
2022-11-09T03:08:24.482Z,11.46
2022-11-09T03:11:28.175Z,11.31
2022-11-09T03:14:31.822Z,11.29
2022-11-09T03:17:36.341Z,11.32
2022-11-09T03:20:39.954Z,11.42
2022-11-09T03:23:45.042Z,11.44
2022-11-09T03:26:48.695Z,11.38
2022-11-09T03:29:52.322Z,11.27
2022-11-09T03:33:00.343Z,11.37
2022-11-09T03:36:04.548Z,11.41
2022-11-09T03:39:09.588Z,11.40
2022-11-09T03:42:13.152Z,11.36
2022-11-09T03:45:18.442Z,11.33
2022-11-09T03:48:22.172Z,11.31
2022-11-09T03:51:25.849Z,11.54
2022-11-09T03:54:30.802Z,11.27
2022-11-09T03:57:34.626Z,11.26
2022-11-09T04:00:38.302Z,11.37
2022-11-09T04:03:41.927Z,11.37
2022-11-09T04:06:45.629Z,11.45
2022-11-09T04:09:50.639Z,11.49
2022-11-09T04:12:54.752Z,11.37
2022-11-09T04:15:58.338Z,11.45
2022-11-09T04:19:01.927Z,11.41
2022-11-09T04:22:05.507Z,11.37
2022-11-09T04:25:11.076Z,11.41
2022-11-09T04:28:14.799Z,11.47
2022-11-09T04:31:18.388Z,11.38
2022-11-09T04:34:22.063Z,11.35
2022-11-09T04:37:25.663Z,11.32
2022-11-09T04:40:33.598Z,11.40
2022-11-09T04:43:37.315Z,11.61
2022-11-09T04:46:41.028Z,11.72
2022-11-09T04:49:44.612Z,11.70
2022-11-09T04:52:48.318Z,11.87
2022-11-09T04:55:53.294Z,11.85
2022-11-09T04:58:56.923Z,11.81
2022-11-09T05:02:00.461Z,11.81
2022-11-09T05:05:04.252Z,11.69
2022-11-09T05:08:08.025Z,11.56
2022-11-09T05:11:13.167Z,11.49
2022-11-09T05:14:16.874Z,11.68
2022-11-09T05:17:20.492Z,11.44
2022-11-09T05:20:24.237Z,11.30
2022-11-09T05:23:45.254Z,11.48
2022-11-09T05:26:50.399Z,11.39
2022-11-09T05:29:54.257Z,11.41
2022-11-09T05:33:02.723Z,11.44
2022-11-09T05:36:07.717Z,11.37
2022-11-09T05:39:11.551Z,11.33
2022-11-09T05:42:16.606Z,11.38
2022-11-09T05:45:45.470Z,11.34
2022-11-09T05:48:49.523Z,11.39
2022-11-09T05:51:53.158Z,11.31
2022-11-09T05:54:56.815Z,11.36
2022-11-09T05:58:02.086Z,11.27
2022-11-09T06:01:07.328Z,11.31
2022-11-09T06:04:10.928Z,11.27
2022-11-09T06:07:14.614Z,11.26
2022-11-09T06:10:18.738Z,11.23
2022-11-09T06:13:23.686Z,11.20
2022-11-09T06:16:27.386Z,11.18
2022-11-09T06:19:31.003Z,11.09
2022-11-09T06:22:34.522Z,11.06
2022-11-09T06:25:38.155Z,11.13
2022-11-09T06:28:43.833Z,11.14
2022-11-09T06:31:49.023Z,11.07
2022-11-09T06:34:53.281Z,11.05
2022-11-09T06:37:58.622Z,11.10
2022-11-09T06:41:02.837Z,11.04
2022-11-09T06:44:08.025Z,11.10
2022-11-09T06:47:11.602Z,11.33
2022-11-09T06:50:15.258Z,11.41
2022-11-09T06:53:20.409Z,11.46
2022-11-09T06:56:24.391Z,11.46
2022-11-09T06:59:29.621Z,11.55
2022-11-09T07:02:33.317Z,11.52
2022-11-09T07:05:40.170Z,11.41
2022-11-09T07:08:43.738Z,11.37
2022-11-09T07:11:50.454Z,11.28
2022-11-09T07:14:55.477Z,11.29
2022-11-09T07:18:00.028Z,11.38
2022-11-09T07:21:08.847Z,11.44
2022-11-09T07:24:16.639Z,11.57
2022-11-09T07:27:24.828Z,11.58
2022-11-09T07:30:32.600Z,11.54
2022-11-09T07:33:36.441Z,11.48
2022-11-09T07:36:40.089Z,11.46
2022-11-09T07:39:43.650Z,11.46
2022-11-09T07:42:47.495Z,11.40
2022-11-09T07:45:52.522Z,11.47
2022-11-09T07:48:56.253Z,11.52
2022-11-09T07:51:59.833Z,11.67
2022-11-09T07:55:03.710Z,11.74
2022-11-09T07:58:11.918Z,11.81
2022-11-09T08:01:17.025Z,11.75
2022-11-09T08:04:20.808Z,11.63
2022-11-09T08:07:24.986Z,11.66
2022-11-09T08:10:30.855Z,11.81
2022-11-09T08:13:34.755Z,11.91
2022-11-09T08:16:40.018Z,11.95
2022-11-09T08:19:43.661Z,11.99
2022-11-09T08:22:48.622Z,11.97
2022-11-09T08:25:52.802Z,12.13
2022-11-09T08:28:56.887Z,12.11
2022-11-09T08:32:01.981Z,12.35
2022-11-09T08:35:06.412Z,12.27
2022-11-09T08:38:11.179Z,12.25
2022-11-09T08:41:15.611Z,12.39
2022-11-09T08:44:19.438Z,12.42
2022-11-09T08:47:24.387Z,12.52
2022-11-09T08:50:29.742Z,12.48
2022-11-09T08:53:33.389Z,12.57
2022-11-09T08:56:36.965Z,12.72
2022-11-09T08:59:40.748Z,12.68
2022-11-09T09:02:45.958Z,12.75
2022-11-09T09:05:49.651Z,12.85
2022-11-09T09:08:53.346Z,12.91
2022-11-09T09:11:57.212Z,13.01
2022-11-09T09:15:00.985Z,12.94
2022-11-09T09:18:06.533Z,13.00
2022-11-09T09:21:11.966Z,13.17
2022-11-09T09:24:15.783Z,13.19
2022-11-09T09:27:19.420Z,13.24
2022-11-09T09:30:23.077Z,13.26
2022-11-09T09:33:28.846Z,13.16
2022-11-09T09:36:32.696Z,13.06
2022-11-09T09:39:36.497Z,13.13
2022-11-09T09:42:45.625Z,13.18
2022-11-09T09:45:54.965Z,13.12
2022-11-09T09:49:07.034Z,13.16
2022-11-09T09:52:23.375Z,13.28
2022-11-09T09:55:35.452Z,13.32
2022-11-09T09:58:47.139Z,13.34
2022-11-09T10:01:50.968Z,13.43
2022-11-09T10:05:03.755Z,13.46
2022-11-09T10:08:15.005Z,13.54
2022-11-09T10:11:35.957Z,13.52
2022-11-09T10:15:13.906Z,13.57
2022-11-09T10:18:44.343Z,13.68
2022-11-09T10:21:59.580Z,13.54
2022-11-09T10:25:32.550Z,13.57
2022-11-09T10:29:09.585Z,13.66
2022-11-09T10:32:19.922Z,13.50
2022-11-09T10:35:30.476Z,13.37
2022-11-09T10:38:48.302Z,13.54
2022-11-09T10:41:52.246Z,13.36
2022-11-09T10:44:55.882Z,13.37
2022-11-09T10:48:00.515Z,13.35
2022-11-09T10:51:05.630Z,13.34
2022-11-09T10:54:26.512Z,13.19
2022-11-09T10:57:30.469Z,13.11
2022-11-09T11:00:34.340Z,13.00
2022-11-09T11:03:39.877Z,12.97
2022-11-09T11:06:43.651Z,13.00
2022-11-09T11:09:48.734Z,13.15
2022-11-09T11:13:25.008Z,13.34
2022-11-09T11:16:34.971Z,13.64
2022-11-09T11:19:42.072Z,13.71
2022-11-09T11:22:45.728Z,13.71
2022-11-09T11:26:26.183Z,13.78
2022-11-09T11:29:44.385Z,13.83
2022-11-09T11:32:50.774Z,13.87
2022-11-09T11:36:00.283Z,13.96
2022-11-09T11:39:16.647Z,14.10
2022-11-09T11:42:57.009Z,13.86
2022-11-09T11:46:15.677Z,13.99
2022-11-09T11:50:01.223Z,14.02
2022-11-09T11:53:21.046Z,14.01
2022-11-09T11:56:33.362Z,13.94
2022-11-09T12:00:04.479Z,13.83
2022-11-09T12:03:53.454Z,13.78
2022-11-09T12:07:18.066Z,13.75
2022-11-09T12:10:44.927Z,13.87
2022-11-09T12:14:06.308Z,13.73
2022-11-09T12:17:22.270Z,13.68
2022-11-09T12:20:34.350Z,13.81
2022-11-09T12:23:59.299Z,13.83
2022-11-09T12:27:36.935Z,13.94
2022-11-09T12:30:57.393Z,13.83
2022-11-09T12:34:08.694Z,13.79
2022-11-09T12:37:17.345Z,13.78
2022-11-09T12:40:26.837Z,13.74
2022-11-09T12:43:42.324Z,13.64
2022-11-09T12:46:53.483Z,13.66
2022-11-09T12:49:58.883Z,13.88
2022-11-09T12:53:06.421Z,13.86
2022-11-09T12:56:19.571Z,13.87
2022-11-09T12:59:38.348Z,13.87
2022-11-09T13:02:56.077Z,13.81
2022-11-09T13:06:28.272Z,13.83
2022-11-09T13:09:44.295Z,13.75
2022-11-09T13:12:48.344Z,13.76
2022-11-09T13:16:14.488Z,13.79
2022-11-09T13:19:52.518Z,13.72
2022-11-09T13:23:03.461Z,13.57
2022-11-09T13:26:24.765Z,13.54
2022-11-09T13:29:30.889Z,13.42
2022-11-09T13:32:34.958Z,13.42
2022-11-09T13:36:16.447Z,13.48
2022-11-09T13:39:39.251Z,13.49
2022-11-09T13:42:42.982Z,13.59
2022-11-09T13:45:49.373Z,13.54
2022-11-09T13:48:54.158Z,13.59
2022-11-09T13:51:57.789Z,13.57
2022-11-09T13:55:04.952Z,13.54
2022-11-09T13:58:20.181Z,13.52
2022-11-09T14:01:33.043Z,13.48
2022-11-09T14:04:42.398Z,13.60
2022-11-09T14:07:45.974Z,13.63
2022-11-09T14:11:34.474Z,13.80
2022-11-09T14:15:27.736Z,13.88
2022-11-09T14:18:48.581Z,13.78
2022-11-09T14:21:54.115Z,13.67
2022-11-09T14:24:57.798Z,13.59
2022-11-09T14:28:03.020Z,13.44
2022-11-09T14:31:06.998Z,13.40
2022-11-09T14:34:17.646Z,13.30
2022-11-09T14:37:22.969Z,13.14
2022-11-09T14:40:30.296Z,13.12
2022-11-09T14:43:41.669Z,13.04
2022-11-09T14:46:45.470Z,13.03
2022-11-09T14:49:51.111Z,12.95
2022-11-09T14:52:57.074Z,13.04
2022-11-09T14:56:05.309Z,13.07
2022-11-09T14:59:15.665Z,13.04
2022-11-09T15:02:21.841Z,13.07
2022-11-09T15:05:40.147Z,13.06
2022-11-09T15:08:56.805Z,12.98
2022-11-09T15:12:01.141Z,13.03
2022-11-09T15:15:09.470Z,13.04
2022-11-09T15:18:23.357Z,13.01
2022-11-09T15:21:37.984Z,13.08
2022-11-09T15:24:50.362Z,13.02
2022-11-09T15:28:22.340Z,12.96
2022-11-09T15:31:28.332Z,12.93
2022-11-09T15:34:40.656Z,12.48
2022-11-09T15:37:53.700Z,11.93
2022-11-09T15:40:59.608Z,11.58
2022-11-09T15:44:03.419Z,11.39
2022-11-09T15:47:23.136Z,11.30
2022-11-09T15:50:29.096Z,11.25
2022-11-09T15:53:33.177Z,11.24
2022-11-09T15:56:38.194Z,11.20
2022-11-09T15:59:41.913Z,11.14
2022-11-09T16:02:46.211Z,11.05
2022-11-09T16:05:50.106Z,11.01
2022-11-09T16:08:54.017Z,11.03
2022-11-09T16:11:58.979Z,11.09
2022-11-09T16:15:02.768Z,11.22
2022-11-09T16:18:06.656Z,11.51
2022-11-09T16:21:12.139Z,11.63
2022-11-09T16:24:17.908Z,11.62
2022-11-09T16:27:48.347Z,11.61
2022-11-09T16:30:47.297Z,11.60
2022-11-09T16:33:51.221Z,11.62
2022-11-09T16:36:56.927Z,11.78
2022-11-09T16:40:02.051Z,11.81
2022-11-09T16:43:07.267Z,11.77
2022-11-09T16:46:13.693Z,11.77
2022-11-09T16:49:17.430Z,11.79
2022-11-09T16:52:21.053Z,11.77
2022-11-09T16:55:24.586Z,11.74
2022-11-09T16:58:29.795Z,11.71
2022-11-09T17:01:35.319Z,11.72
2022-11-09T17:04:39.693Z,11.65
2022-11-09T17:07:43.302Z,11.56
2022-11-09T17:10:48.413Z,11.56
2022-11-09T17:13:58.099Z,11.53
2022-11-09T17:17:01.749Z,11.47
2022-11-09T17:20:07.169Z,11.50
2022-11-09T17:23:11.290Z,11.60
2022-11-09T17:26:14.988Z,11.78
2022-11-09T17:29:20.114Z,11.72
2022-11-09T17:32:27.382Z,11.74
2022-11-09T17:35:36.502Z,11.74
2022-11-09T17:38:40.447Z,11.72
2022-11-09T17:41:44.128Z,11.73
2022-11-09T17:44:49.050Z,11.71
2022-11-09T17:47:52.686Z,11.64
2022-11-09T17:50:57.998Z,11.68
2022-11-09T17:54:02.182Z,11.68
2022-11-09T17:57:05.748Z,11.64
2022-11-09T18:00:12.993Z,11.56
2022-11-09T18:03:17.144Z,11.54
2022-11-09T18:06:23.209Z,11.66
2022-11-09T18:09:40.791Z,11.69
2022-11-09T18:12:45.203Z,11.80
2022-11-09T18:15:50.171Z,11.78
2022-11-09T18:18:59.674Z,11.84
2022-11-09T18:22:04.916Z,11.84
2022-11-09T18:25:12.149Z,11.92
2022-11-09T18:28:15.767Z,11.90
2022-11-09T18:31:20.783Z,11.83
2022-11-09T18:34:24.519Z,11.83
2022-11-09T18:37:28.698Z,11.78
2022-11-09T18:40:32.442Z,11.76
2022-11-09T18:43:36.460Z,11.43
2022-11-09T18:46:41.359Z,10.95
2022-11-09T18:49:45.525Z,10.67
2022-11-09T18:52:49.482Z,10.43
2022-11-09T18:55:54.055Z,10.33
2022-11-09T18:59:00.106Z,10.28
2022-11-09T19:02:05.655Z,10.26
2022-11-09T19:05:14.453Z,10.22
2022-11-09T19:08:39.173Z,10.25
2022-11-09T19:11:46.254Z,10.18
2022-11-09T19:14:50.161Z,10.12
2022-11-09T19:18:01.022Z,10.08
2022-11-09T19:21:06.623Z,10.01
2022-11-09T19:24:16.853Z,9.96
2022-11-09T19:27:20.740Z,9.90
2022-11-09T19:30:26.094Z,9.85
2022-11-09T19:33:31.434Z,9.84
2022-11-09T19:36:35.179Z,9.75
2022-11-09T19:39:43.115Z,9.72
2022-11-09T19:42:47.836Z,9.72
2022-11-09T19:45:51.862Z,9.79
2022-11-09T19:48:57.004Z,9.86
2022-11-09T19:52:01.995Z,9.87
2022-11-09T19:55:06.324Z,9.83
2022-11-09T19:58:10.053Z,9.77
2022-11-09T20:01:14.049Z,9.70
2022-11-09T20:04:19.522Z,9.67
2022-11-09T20:07:23.505Z,9.64
2022-11-09T20:10:27.376Z,9.65
2022-11-09T20:13:31.033Z,9.64
2022-11-09T20:16:36.162Z,9.63
2022-11-09T20:19:41.114Z,9.60
2022-11-09T20:22:45.104Z,9.60
2022-11-09T20:25:48.774Z,9.61
2022-11-09T20:28:54.470Z,9.56
2022-11-09T20:31:58.407Z,9.56
2022-11-09T20:35:03.606Z,9.56
2022-11-09T20:38:07.147Z,9.54
2022-11-09T20:41:13.388Z,9.52
2022-11-09T20:44:17.682Z,9.51
2022-11-09T20:47:41.971Z,9.48
2022-11-09T20:50:46.905Z,9.51
2022-11-09T20:53:51.606Z,9.52
2022-11-09T20:56:55.588Z,9.52
2022-11-09T20:59:59.303Z,9.52
2022-11-09T21:03:02.961Z,9.52
2022-11-09T21:06:10.101Z,9.52
2022-11-09T21:09:13.749Z,9.53
2022-11-09T21:12:24.791Z,9.52
2022-11-09T21:15:29.523Z,9.55
2022-11-09T21:18:33.036Z,9.52
2022-11-09T21:21:37.996Z,9.54
2022-11-09T21:24:59.261Z,9.55
2022-11-09T21:28:20.795Z,9.51
2022-11-09T21:31:24.776Z,9.49
2022-11-09T21:34:32.743Z,9.55
2022-11-09T21:37:40.520Z,9.58
2022-11-09T21:40:44.294Z,9.60
2022-11-09T21:43:48.355Z,9.61
2022-11-09T21:46:52.354Z,9.61
2022-11-09T21:49:56.201Z,9.64
2022-11-09T21:53:01.248Z,9.60
2022-11-09T21:56:05.483Z,9.56
2022-11-09T21:59:09.943Z,9.58
2022-11-09T22:02:13.688Z,9.54
2022-11-09T22:05:21.845Z,9.51
2022-11-09T22:08:28.405Z,9.51
2022-11-09T22:11:49.590Z,9.52
2022-11-09T22:15:10.817Z,9.56
2022-11-09T22:18:34.577Z,9.55
2022-11-09T22:21:37.714Z,9.52
2022-11-09T22:24:43.269Z,9.47
2022-11-09T22:27:47.185Z,9.41
2022-11-09T22:30:50.726Z,9.39
2022-11-09T22:33:55.139Z,9.36
2022-11-09T22:36:58.996Z,9.33
2022-11-09T22:40:04.123Z,9.27
2022-11-09T22:43:07.819Z,9.29
2022-11-09T22:46:14.049Z,9.25
2022-11-09T22:49:18.430Z,9.24
2022-11-09T22:52:22.059Z,9.20
2022-11-09T22:55:27.210Z,9.19
2022-11-09T22:58:31.279Z,9.12
2022-11-09T23:01:34.958Z,9.10
2022-11-09T23:04:38.604Z,9.10
2022-11-09T23:07:42.344Z,9.10
2022-11-09T23:10:56.147Z,9.16
2022-11-09T23:13:59.687Z,9.10
2022-11-09T23:17:23.299Z,9.12
2022-11-09T23:20:28.810Z,9.04
2022-11-09T23:23:35.154Z,9.01
2022-11-09T23:26:40.167Z,8.98
2022-11-09T23:29:43.834Z,8.95
2022-11-09T23:32:47.492Z,8.95
2022-11-09T23:35:51.070Z,8.91
2022-11-09T23:38:55.000Z,8.85
2022-11-09T23:42:00.070Z,8.92
2022-11-09T23:45:03.766Z,8.88
2022-11-09T23:48:08.706Z,8.84
2022-11-09T23:51:12.773Z,8.88
2022-11-09T23:54:16.454Z,8.90
2022-11-09T23:57:21.413Z,8.85
